createdAt,value
2022-11-05T00:00:36.731Z,15.95
2022-11-05T00:03:23.848Z,14.97
2022-11-05T00:06:11.257Z,15.55
2022-11-05T00:08:56.482Z,12.63
2022-11-05T00:11:42.974Z,13.60
2022-11-05T00:14:30.807Z,14.77
2022-11-05T00:16:57.252Z,16.37
2022-11-05T00:19:30.258Z,18.95
2022-11-05T00:25:44.088Z,18.38
2022-11-05T00:28:10.591Z,13.60
2022-11-05T00:30:40.361Z,21.30
2022-11-05T00:33:06.794Z,13.77
2022-11-05T00:35:36.257Z,18.23
2022-11-05T00:38:26.269Z,16.58
2022-11-05T00:40:52.770Z,14.75
2022-11-05T00:43:37.908Z,15.10
2022-11-05T00:46:11.541Z,14.93
2022-11-05T00:48:57.110Z,20.42
2022-11-05T00:51:25.967Z,16.85
2022-11-05T00:53:55.751Z,16.08
2022-11-05T00:56:22.220Z,15.70
2022-11-05T00:58:48.998Z,17.58
2022-11-05T01:01:15.658Z,19.10
2022-11-05T01:03:50.424Z,14.88
2022-11-05T01:06:18.646Z,14.27
2022-11-05T01:08:47.212Z,16.67
2022-11-05T01:11:34.439Z,17.13
2022-11-05T01:14:06.382Z,17.35
2022-11-05T01:16:33.223Z,16.35
2022-11-05T01:19:03.989Z,18.23
2022-11-05T01:21:32.714Z,16.53
2022-11-05T01:23:59.275Z,16.00
2022-11-05T01:26:26.384Z,17.42
2022-11-05T01:29:01.503Z,19.08
2022-11-05T01:31:29.151Z,16.95
2022-11-05T01:33:55.661Z,19.47
2022-11-05T01:36:22.136Z,19.90
2022-11-05T01:38:48.604Z,18.92
2022-11-05T01:41:15.067Z,18.65
2022-11-05T01:43:54.501Z,19.75
2022-11-05T01:46:29.318Z,16.90
2022-11-05T01:49:02.759Z,20.15
2022-11-05T01:51:29.689Z,16.45
2022-11-05T01:54:00.283Z,18.10
2022-11-05T01:56:30.220Z,18.05
2022-11-05T01:59:12.572Z,19.10
2022-11-05T02:01:39.284Z,18.00
2022-11-05T02:04:09.934Z,19.15
2022-11-05T02:09:54.189Z,16.25
2022-11-05T02:12:26.343Z,15.33
2022-11-05T02:14:57.949Z,15.20
2022-11-05T02:17:43.208Z,16.80
2022-11-05T02:20:24.019Z,16.58
2022-11-05T02:23:11.536Z,15.98
2022-11-05T02:26:19.767Z,16.53
2022-11-05T02:29:18.999Z,16.77
2022-11-05T02:31:50.950Z,16.23
2022-11-05T02:34:35.575Z,14.88
2022-11-05T02:37:19.797Z,15.73
2022-11-05T02:43:26.167Z,17.38
2022-11-05T02:46:03.792Z,16.48
2022-11-05T02:48:36.818Z,16.83
2022-11-05T02:51:15.942Z,15.57
2022-11-05T02:53:53.710Z,16.83
2022-11-05T02:56:30.802Z,15.55
2022-11-05T02:58:57.239Z,14.95
2022-11-05T03:01:23.756Z,16.17
2022-11-05T03:03:59.473Z,17.40
2022-11-05T03:06:32.045Z,19.03
2022-11-05T03:09:26.332Z,16.67
2022-11-05T03:12:02.946Z,17.02
2022-11-05T03:14:47.650Z,18.30
2022-11-05T03:17:18.241Z,20.40
2022-11-05T03:19:58.865Z,25.53
2022-11-05T03:22:30.722Z,25.85
2022-11-05T03:25:08.373Z,32.88
2022-11-05T03:27:37.313Z,29.35
2022-11-05T03:30:09.633Z,24.88
2022-11-05T03:32:41.188Z,25.70
2022-11-05T03:35:23.076Z,20.50
2022-11-05T03:37:52.168Z,22.48
2022-11-05T03:40:21.660Z,22.05
2022-11-05T03:42:52.988Z,23.73
2022-11-05T03:45:43.569Z,27.90
2022-11-05T03:48:11.667Z,22.58
2022-11-05T03:50:54.080Z,23.45
2022-11-05T03:57:04.462Z,21.65
2022-11-05T03:59:32.248Z,25.07
2022-11-05T04:02:00.008Z,21.42
2022-11-05T04:04:26.552Z,26.83
2022-11-05T04:07:12.020Z,29.33
2022-11-05T04:09:56.797Z,25.48
2022-11-05T04:12:41.704Z,25.40
2022-11-05T04:15:08.608Z,24.92
2022-11-05T04:17:35.045Z,24.92
2022-11-05T04:20:20.334Z,26.58
2022-11-05T04:23:07.059Z,27.63
2022-11-05T04:25:33.836Z,25.23
2022-11-05T04:28:04.326Z,23.33
2022-11-05T04:30:30.751Z,23.88
2022-11-05T04:33:15.879Z,23.75
2022-11-05T04:35:48.999Z,24.13
2022-11-05T04:38:20.819Z,27.33
2022-11-05T04:40:50.877Z,26.25
2022-11-05T04:43:19.335Z,24.83
2022-11-05T04:45:48.389Z,20.33
2022-11-05T04:48:16.308Z,22.27
2022-11-05T04:50:46.217Z,23.17
2022-11-05T04:53:17.540Z,24.25
2022-11-05T04:55:51.235Z,24.30
2022-11-05T04:58:17.670Z,26.77
2022-11-05T05:00:44.289Z,26.55
2022-11-05T05:03:11.136Z,22.33
2022-11-05T05:05:39.834Z,26.52
2022-11-05T05:08:06.350Z,23.58
2022-11-05T05:10:33.488Z,27.73
2022-11-05T05:12:59.947Z,23.10
2022-11-05T05:15:33.522Z,24.70
2022-11-05T05:18:00.663Z,24.85
2022-11-05T05:20:46.998Z,26.33
2022-11-05T05:23:13.680Z,29.95
2022-11-05T05:25:40.273Z,26.80
2022-11-05T05:28:08.395Z,26.50
2022-11-05T05:30:35.189Z,25.85
2022-11-05T05:33:03.552Z,20.55
2022-11-05T05:35:32.722Z,24.83
2022-11-05T05:37:59.156Z,24.05
2022-11-05T05:40:27.533Z,23.37
2022-11-05T05:42:55.474Z,25.30
2022-11-05T05:45:41.329Z,25.83
2022-11-05T05:48:07.830Z,26.48
2022-11-05T05:50:34.303Z,21.77
2022-11-05T05:53:02.303Z,24.03
2022-11-05T05:55:29.937Z,28.80
2022-11-05T05:57:56.395Z,26.35
2022-11-05T06:00:25.262Z,31.35
2022-11-05T06:02:51.902Z,24.55
2022-11-05T06:05:18.439Z,24.73
2022-11-05T06:07:45.850Z,22.35
2022-11-05T06:10:12.427Z,23.88
2022-11-05T06:12:38.931Z,24.42
2022-11-05T06:15:05.830Z,23.23
2022-11-05T06:17:32.926Z,22.47
2022-11-05T06:20:07.237Z,21.27
2022-11-05T06:22:40.171Z,25.83
2022-11-05T06:25:07.524Z,18.17
2022-11-05T06:27:36.218Z,18.25
2022-11-05T06:30:04.545Z,17.40
2022-11-05T06:32:31.276Z,16.73
2022-11-05T06:34:57.840Z,17.58
2022-11-05T06:37:28.034Z,15.95
2022-11-05T06:39:57.223Z,16.55
2022-11-05T06:42:24.105Z,15.07
2022-11-05T06:44:50.654Z,17.95
2022-11-05T06:47:22.675Z,17.13
2022-11-05T06:49:49.144Z,15.63
2022-11-05T06:52:17.066Z,16.50
2022-11-05T06:54:43.992Z,18.70
2022-11-05T06:57:11.700Z,16.52
2022-11-05T06:59:41.782Z,20.00
2022-11-05T07:02:10.612Z,19.48
2022-11-05T07:04:42.172Z,18.85
2022-11-05T07:07:16.089Z,20.80
2022-11-05T07:09:45.351Z,21.58
2022-11-05T07:12:12.266Z,22.20
2022-11-05T07:14:41.301Z,21.25
2022-11-05T07:17:08.808Z,20.85
2022-11-05T07:19:37.572Z,21.53
2022-11-05T07:22:04.021Z,22.58
2022-11-05T07:24:30.542Z,22.05
2022-11-05T07:26:58.492Z,20.20
2022-11-05T07:29:25.120Z,21.92
2022-11-05T07:31:51.627Z,21.00
2022-11-05T07:34:18.091Z,27.70
2022-11-05T07:36:44.559Z,25.42
2022-11-05T07:39:11.172Z,23.80
2022-11-05T07:41:37.671Z,25.88
2022-11-05T07:44:04.172Z,24.10
2022-11-05T07:51:54.477Z,25.05
2022-11-05T07:54:20.988Z,23.42
2022-11-05T07:56:47.975Z,25.97
2022-11-05T07:59:14.489Z,21.90
2022-11-05T08:01:41.160Z,25.27
2022-11-05T08:04:07.712Z,23.30
2022-11-05T08:06:34.257Z,25.90
2022-11-05T08:09:00.921Z,24.10
2022-11-05T08:11:31.382Z,21.92
2022-11-05T08:13:57.901Z,27.02
2022-11-05T08:16:24.419Z,26.13
2022-11-05T08:18:50.959Z,32.22
2022-11-05T08:21:17.550Z,28.70
2022-11-05T08:23:44.404Z,26.67
2022-11-05T08:26:13.549Z,27.42
2022-11-05T08:28:40.229Z,28.75
2022-11-05T08:31:06.736Z,28.00
2022-11-05T08:33:34.806Z,28.10
2022-11-05T08:36:04.934Z,26.00
2022-11-05T08:38:31.526Z,23.33
2022-11-05T08:40:58.469Z,25.02
2022-11-05T08:43:25.288Z,26.00
2022-11-05T08:45:51.837Z,28.70
2022-11-05T08:48:19.097Z,28.85
2022-11-05T08:50:47.356Z,26.58
2022-11-05T08:53:14.978Z,27.13
2022-11-05T08:55:41.658Z,25.13
2022-11-05T08:58:13.085Z,23.13
2022-11-05T09:00:40.084Z,25.25
2022-11-05T09:03:08.441Z,24.33
2022-11-05T09:05:38.364Z,29.00
2022-11-05T09:08:13.373Z,24.83
2022-11-05T09:10:40.734Z,27.13
2022-11-05T09:13:09.631Z,24.40
2022-11-05T09:15:41.105Z,24.00
2022-11-05T09:18:12.024Z,25.85
2022-11-05T09:20:40.067Z,25.65
2022-11-05T09:23:07.812Z,23.67
2022-11-05T09:25:34.653Z,24.48
2022-11-05T09:28:17.037Z,23.13
2022-11-05T09:30:45.980Z,23.20
2022-11-05T09:33:13.061Z,21.77
2022-11-05T09:35:40.905Z,22.57
2022-11-05T09:38:08.008Z,24.77
2022-11-05T09:40:41.941Z,24.60
2022-11-05T09:43:15.946Z,22.45
2022-11-05T09:45:44.056Z,19.38
2022-11-05T09:48:14.676Z,19.67
2022-11-05T09:50:44.349Z,19.67
2022-11-05T09:53:16.764Z,16.45
2022-11-05T09:55:46.629Z,16.48
2022-11-05T09:58:32.256Z,16.08
2022-11-05T10:00:59.411Z,14.83
2022-11-05T10:03:28.232Z,12.68
2022-11-05T10:05:58.385Z,14.35
2022-11-05T10:08:29.349Z,12.10
2022-11-05T10:11:01.675Z,11.93
2022-11-05T10:13:42.530Z,8.97
2022-11-05T10:16:21.887Z,11.30
2022-11-05T10:18:54.148Z,10.02
2022-11-05T10:21:37.751Z,8.70
2022-11-05T10:24:15.902Z,8.60
2022-11-05T10:26:43.451Z,7.73
2022-11-05T10:29:13.956Z,9.50
2022-11-05T10:31:47.791Z,8.63
2022-11-05T10:34:17.837Z,7.25
2022-11-05T10:36:44.508Z,7.45
2022-11-05T10:39:14.028Z,8.27
2022-11-05T10:41:43.615Z,10.05
2022-11-05T10:44:19.254Z,12.43
2022-11-05T10:47:34.734Z,8.70
2022-11-05T10:50:27.971Z,7.25
2022-11-05T10:53:17.322Z,9.40
2022-11-05T10:55:47.766Z,9.40
2022-11-05T10:58:17.207Z,7.20
2022-11-05T11:00:45.464Z,7.18
2022-11-05T11:03:34.146Z,5.85
2022-11-05T11:06:05.301Z,8.53
2022-11-05T11:08:35.618Z,5.85
2022-11-05T11:11:08.367Z,7.22
2022-11-05T11:14:03.141Z,7.78
2022-11-05T11:16:35.049Z,5.78
2022-11-05T11:19:03.140Z,6.17
2022-11-05T11:21:33.510Z,4.70
2022-11-05T11:24:06.888Z,10.20
2022-11-05T11:26:38.753Z,6.40
2022-11-05T11:29:08.185Z,5.95
2022-11-05T11:31:38.166Z,5.07
2022-11-05T11:34:12.174Z,4.68
2022-11-05T11:36:50.554Z,7.28
2022-11-05T11:39:20.100Z,5.30
2022-11-05T11:41:54.962Z,5.15
2022-11-05T11:44:27.511Z,6.13
2022-11-05T11:46:57.744Z,7.60
2022-11-05T11:49:46.296Z,6.28
2022-11-05T11:52:34.089Z,5.32
2022-11-05T11:55:13.074Z,6.03
2022-11-05T11:57:47.049Z,4.10
2022-11-05T12:00:14.527Z,7.30
2022-11-05T12:02:54.809Z,5.25
2022-11-05T12:05:43.942Z,4.82
2022-11-05T12:08:25.579Z,4.68
2022-11-05T12:11:04.235Z,6.30
2022-11-05T12:13:52.650Z,5.75
2022-11-05T12:16:55.461Z,4.90
2022-11-05T12:19:24.943Z,7.97
2022-11-05T12:22:02.442Z,4.90
2022-11-05T12:24:47.333Z,5.00
2022-11-05T12:27:43.721Z,5.35
2022-11-05T12:30:16.912Z,6.18
2022-11-05T12:33:23.515Z,8.27
2022-11-05T12:36:03.492Z,7.68
2022-11-05T12:38:39.690Z,4.30
2022-11-05T12:41:13.769Z,5.13
2022-11-05T12:43:55.379Z,7.20
2022-11-05T12:46:51.702Z,6.63
2022-11-05T12:49:36.757Z,10.25
2022-11-05T12:52:26.034Z,7.53
2022-11-05T12:55:10.656Z,12.20
2022-11-05T12:57:41.819Z,7.03
2022-11-05T13:00:24.754Z,9.35
2022-11-05T13:03:19.934Z,9.27
2022-11-05T13:06:00.193Z,9.40
2022-11-05T13:08:44.968Z,9.95
2022-11-05T13:11:21.652Z,31.10
2022-11-05T13:14:04.417Z,12.18
2022-11-05T13:16:34.776Z,9.13
2022-11-05T13:19:38.739Z,8.57
2022-11-05T13:22:11.493Z,11.13
2022-11-05T13:24:40.999Z,8.55
2022-11-05T13:27:52.586Z,10.55
2022-11-05T13:30:24.316Z,10.60
2022-11-05T13:32:59.530Z,11.97
2022-11-05T13:35:44.578Z,12.27
2022-11-05T13:38:39.790Z,11.85
2022-11-05T13:41:17.596Z,12.60
2022-11-05T13:43:50.558Z,11.93
2022-11-05T13:46:43.969Z,7.30
2022-11-05T13:49:28.948Z,9.18
2022-11-05T13:52:35.780Z,9.35
2022-11-05T13:55:40.011Z,16.48
2022-11-05T13:58:33.910Z,9.55
2022-11-05T14:01:32.541Z,11.93
2022-11-05T14:03:59.230Z,9.60
2022-11-05T14:06:29.759Z,8.82
2022-11-05T14:09:00.993Z,9.60
2022-11-05T14:11:34.074Z,9.55
2022-11-05T14:14:03.921Z,7.97
2022-11-05T14:16:52.469Z,13.25
2022-11-05T14:19:29.234Z,8.02
2022-11-05T14:21:57.453Z,8.57
2022-11-05T14:24:27.124Z,9.63
2022-11-05T14:27:03.756Z,12.43
2022-11-05T14:29:41.758Z,10.82
2022-11-05T14:32:17.261Z,11.93
2022-11-05T14:35:04.205Z,11.25
2022-11-05T14:37:33.120Z,9.77
2022-11-05T14:40:19.512Z,28.43
2022-11-05T14:42:51.523Z,12.00
2022-11-05T14:45:24.705Z,7.28
2022-11-05T14:47:57.087Z,11.00
2022-11-05T14:50:31.491Z,11.73
2022-11-05T14:53:02.428Z,11.10
2022-11-05T14:55:38.886Z,8.93
2022-11-05T14:58:26.543Z,11.95
2022-11-05T15:00:54.028Z,7.85
2022-11-05T15:03:46.913Z,9.40
2022-11-05T15:06:27.572Z,8.90
2022-11-05T15:08:58.984Z,11.52
2022-11-05T15:11:40.026Z,12.70
2022-11-05T15:14:20.140Z,10.10
2022-11-05T15:16:55.011Z,11.18
2022-11-05T15:19:29.784Z,13.57
2022-11-05T15:22:00.185Z,10.63
2022-11-05T15:24:30.550Z,9.07
2022-11-05T15:27:14.913Z,14.93
2022-11-05T15:29:43.047Z,14.85
2022-11-05T15:32:16.516Z,11.70
2022-11-05T15:34:54.525Z,13.52
2022-11-05T15:37:24.074Z,10.55
2022-11-05T15:39:52.611Z,12.32
2022-11-05T15:42:25.337Z,12.10
2022-11-05T15:44:53.970Z,13.00
2022-11-05T15:47:31.480Z,14.88
2022-11-05T15:50:03.940Z,13.63
2022-11-05T15:52:51.688Z,14.05
2022-11-05T15:55:22.777Z,21.73
2022-11-05T15:57:51.745Z,20.30
2022-11-05T16:00:22.332Z,25.23
2022-11-05T16:02:59.014Z,27.40
2022-11-05T16:05:28.747Z,24.60
2022-11-05T16:07:58.197Z,27.63
2022-11-05T16:10:34.022Z,18.73
2022-11-05T16:13:30.900Z,13.30
2022-11-05T16:16:00.155Z,20.50
2022-11-05T16:18:35.021Z,21.85
2022-11-05T16:21:12.784Z,16.00
2022-11-05T16:23:49.996Z,17.80
2022-11-05T16:27:01.945Z,17.55
2022-11-05T16:29:33.310Z,17.52
2022-11-05T16:32:02.096Z,17.38
2022-11-05T16:34:40.376Z,16.88
2022-11-05T16:37:11.493Z,17.63
2022-11-05T16:39:38.152Z,18.05
2022-11-05T16:42:22.680Z,18.27
2022-11-05T16:44:53.953Z,18.23
2022-11-05T16:47:21.264Z,15.40
2022-11-05T16:49:48.656Z,18.87
2022-11-05T16:52:15.451Z,16.30
2022-11-05T16:54:42.348Z,15.60
2022-11-05T16:57:35.046Z,19.02
2022-11-05T17:00:01.775Z,15.45
2022-11-05T17:02:28.595Z,13.60
2022-11-05T17:04:55.205Z,16.38
2022-11-05T17:07:21.704Z,16.33
2022-11-05T17:09:48.434Z,17.90
2022-11-05T17:12:17.876Z,25.20
2022-11-05T17:14:47.214Z,23.77
2022-11-05T17:17:13.637Z,22.67
2022-11-05T17:19:42.451Z,30.40
2022-11-05T17:22:09.243Z,47.70
2022-11-05T17:24:35.769Z,49.45
2022-11-05T17:27:02.277Z,41.30
2022-11-05T17:29:28.848Z,32.22
2022-11-05T17:31:55.323Z,33.35
2022-11-05T17:34:21.847Z,42.55
2022-11-05T17:36:48.675Z,30.52
2022-11-05T17:39:15.436Z,28.67
2022-11-05T17:41:43.470Z,34.85
2022-11-05T17:44:10.613Z,28.83
2022-11-05T17:46:37.036Z,27.13
2022-11-05T17:49:03.544Z,35.38
2022-11-05T17:51:29.967Z,29.37
2022-11-05T17:53:56.587Z,37.80
2022-11-05T17:56:32.469Z,42.35
2022-11-05T17:59:01.200Z,34.78
2022-11-05T18:01:33.304Z,36.42
2022-11-05T18:04:05.460Z,32.87
2022-11-05T18:06:35.286Z,30.10
2022-11-05T18:09:02.025Z,29.35
2022-11-05T18:11:28.685Z,33.95
2022-11-05T18:13:55.195Z,35.13
2022-11-05T18:16:21.646Z,29.40
2022-11-05T18:18:49.356Z,27.88
2022-11-05T18:21:16.051Z,25.10
2022-11-05T18:23:42.624Z,27.63
2022-11-05T18:26:14.508Z,28.52
2022-11-05T18:28:41.115Z,27.07
2022-11-05T18:31:17.856Z,30.30
2022-11-05T18:33:45.161Z,28.75
2022-11-05T18:36:24.346Z,29.48
2022-11-05T18:38:51.132Z,30.33
2022-11-05T18:41:18.390Z,23.93
2022-11-05T18:43:44.879Z,25.90
2022-11-05T18:46:29.303Z,26.77
2022-11-05T18:48:59.259Z,26.98
2022-11-05T18:51:26.179Z,24.10
2022-11-05T18:53:53.854Z,21.13
2022-11-05T18:56:20.656Z,17.55
2022-11-05T18:58:49.857Z,23.95
2022-11-05T19:01:21.739Z,17.58
2022-11-05T19:03:49.532Z,23.17
2022-11-05T19:06:16.087Z,17.73
2022-11-05T19:08:42.918Z,18.17
2022-11-05T19:11:11.521Z,16.45
2022-11-05T19:13:38.693Z,20.30
2022-11-05T19:16:14.195Z,19.58
2022-11-05T19:18:41.181Z,18.27
2022-11-05T19:21:25.316Z,20.00
2022-11-05T19:23:52.459Z,20.58
2022-11-05T19:26:25.740Z,18.52
2022-11-05T19:28:54.858Z,26.10
2022-11-05T19:31:22.794Z,18.53
2022-11-05T19:33:50.429Z,17.10
2022-11-05T19:36:18.644Z,19.42
2022-11-05T19:38:45.289Z,21.45
2022-11-05T19:41:15.428Z,18.77
2022-11-05T19:43:42.307Z,21.20
2022-11-05T19:46:11.804Z,16.10
2022-11-05T19:48:40.226Z,18.85
2022-11-05T19:51:10.687Z,12.30
2022-11-05T19:53:39.263Z,13.60
2022-11-05T19:56:07.359Z,14.50
2022-11-05T19:58:34.622Z,22.17
2022-11-05T20:01:03.325Z,14.13
2022-11-05T20:03:30.108Z,17.63
2022-11-05T20:06:02.336Z,13.13
2022-11-05T20:08:28.891Z,13.87
2022-11-05T20:10:55.657Z,14.50
2022-11-05T20:13:22.840Z,12.50
2022-11-05T20:15:49.358Z,13.20
2022-11-05T20:18:16.891Z,12.52
2022-11-05T20:20:44.372Z,11.40
2022-11-05T20:23:11.306Z,14.13
2022-11-05T20:25:37.783Z,15.95
2022-11-05T20:28:07.112Z,13.52
2022-11-05T20:30:33.733Z,15.43
2022-11-05T20:33:00.270Z,17.03
2022-11-05T20:35:26.738Z,17.30
2022-11-05T20:37:54.327Z,19.27
2022-11-05T20:40:20.923Z,17.48
2022-11-05T20:42:47.678Z,15.50
2022-11-05T20:45:14.207Z,13.03
2022-11-05T20:47:40.713Z,15.80
2022-11-05T20:50:08.087Z,17.73
2022-11-05T20:52:36.698Z,16.98
2022-11-05T20:55:04.262Z,17.10
2022-11-05T20:57:30.748Z,18.00
2022-11-05T20:59:57.452Z,15.85
2022-11-05T21:02:23.986Z,15.35
2022-11-05T21:04:50.597Z,12.63
2022-11-05T21:07:17.078Z,24.15
2022-11-05T21:09:43.532Z,15.53
2022-11-05T21:12:10.110Z,14.25
2022-11-05T21:14:41.836Z,16.63
2022-11-05T21:17:10.397Z,13.55
2022-11-05T21:19:37.007Z,13.90
2022-11-05T21:22:06.146Z,10.20
2022-11-05T21:24:33.717Z,10.93
2022-11-05T21:27:02.604Z,12.45
2022-11-05T21:29:29.055Z,14.73
2022-11-05T21:31:55.541Z,12.43
2022-11-05T21:34:21.979Z,9.70
2022-11-05T21:36:51.320Z,11.98
2022-11-05T21:39:18.285Z,15.07
2022-11-05T21:41:44.776Z,16.90
2022-11-05T21:44:11.688Z,11.93
2022-11-05T21:46:38.242Z,10.20
2022-11-05T21:49:04.798Z,12.18
2022-11-05T21:51:50.259Z,11.32
2022-11-05T21:54:35.622Z,11.80
2022-11-05T21:57:21.029Z,11.88
2022-11-05T21:59:52.414Z,15.80
2022-11-05T22:02:22.740Z,9.80
2022-11-05T22:04:51.703Z,13.45
2022-11-05T22:07:20.561Z,18.58
2022-11-05T22:09:47.332Z,12.93
2022-11-05T22:12:13.942Z,10.40
2022-11-05T22:14:40.774Z,12.43
2022-11-05T22:17:07.878Z,14.10
2022-11-05T22:19:34.653Z,16.13
2022-11-05T22:22:04.184Z,15.07
2022-11-05T22:24:35.198Z,10.67
2022-11-05T22:27:04.346Z,11.20
2022-11-05T22:29:30.832Z,10.35
2022-11-05T22:31:57.321Z,13.00
2022-11-05T22:34:24.767Z,10.32
2022-11-05T22:36:58.501Z,10.63
2022-11-05T22:39:25.297Z,11.70
2022-11-05T22:41:55.975Z,17.00
2022-11-05T22:44:23.899Z,12.73
2022-11-05T22:46:52.978Z,14.27
2022-11-05T22:49:21.973Z,13.80
2022-11-05T22:51:48.566Z,11.70
2022-11-05T22:54:15.419Z,12.18
2022-11-05T22:56:42.771Z,13.05
2022-11-05T22:59:13.317Z,12.65
2022-11-05T23:01:40.387Z,16.00
2022-11-05T23:04:06.937Z,13.68
2022-11-05T23:07:13.286Z,11.80
2022-11-05T23:09:59.604Z,10.88
2022-11-05T23:12:26.050Z,10.43
2022-11-05T23:14:53.441Z,13.33
2022-11-05T23:17:38.547Z,10.25
2022-11-05T23:20:25.727Z,6.97
2022-11-05T23:23:10.950Z,12.93
2022-11-05T23:25:37.441Z,11.65
2022-11-05T23:28:07.095Z,14.70
2022-11-05T23:30:33.949Z,11.10
2022-11-05T23:33:00.391Z,9.05
2022-11-05T23:35:45.433Z,9.32
2022-11-05T23:38:30.294Z,12.07
2022-11-05T23:41:22.915Z,10.03
2022-11-05T23:44:08.599Z,10.18
2022-11-05T23:46:53.990Z,11.18
2022-11-05T23:49:21.200Z,12.18
2022-11-05T23:51:49.061Z,14.38
2022-11-05T23:54:15.756Z,9.20
2022-11-05T23:56:42.201Z,9.75
2022-11-05T23:59:08.858Z,13.23
